createdAt,value
2023-03-05T00:02:09.623Z,41.70
2023-03-05T00:04:36.131Z,42.31
2023-03-05T00:07:03.077Z,41.57
2023-03-05T00:09:29.540Z,41.65
2023-03-05T00:11:56.027Z,41.44
2023-03-05T00:14:22.420Z,41.71
2023-03-05T00:16:48.888Z,41.19
2023-03-05T00:19:15.336Z,43.39
2023-03-05T00:21:41.788Z,42.12
2023-03-05T00:24:08.181Z,42.53
2023-03-05T00:26:34.674Z,42.51
2023-03-05T00:29:01.507Z,41.74
2023-03-05T00:31:27.940Z,41.38
2023-03-05T00:33:54.450Z,41.56
2023-03-05T00:36:20.910Z,41.82
2023-03-05T00:38:47.822Z,41.99
2023-03-05T00:41:14.294Z,43.39
2023-03-05T00:43:40.785Z,42.45
2023-03-05T00:46:07.193Z,41.96
2023-03-05T00:48:33.588Z,42.35
2023-03-05T00:51:00.207Z,43.12
2023-03-05T00:53:26.641Z,43.13
2023-03-05T00:55:53.109Z,43.06
2023-03-05T00:58:19.653Z,43.13
2023-03-05T01:00:46.392Z,42.73
2023-03-05T01:03:15.370Z,43.35
2023-03-05T01:05:41.815Z,42.98
2023-03-05T01:08:08.522Z,43.09
2023-03-05T01:10:34.988Z,43.38
2023-03-05T01:13:01.427Z,43.88
2023-03-05T01:15:27.869Z,44.55
2023-03-05T01:17:54.364Z,45.34
2023-03-05T01:20:20.802Z,45.29
2023-03-05T01:22:48.019Z,43.91
2023-03-05T01:25:14.458Z,43.92
2023-03-05T01:27:40.904Z,44.15
2023-03-05T01:30:07.453Z,44.30
2023-03-05T01:32:35.462Z,44.92
2023-03-05T01:35:02.173Z,44.51
2023-03-05T01:37:28.748Z,44.52
2023-03-05T01:39:55.230Z,44.19
2023-03-05T01:42:21.622Z,45.09
2023-03-05T01:44:48.225Z,44.46
2023-03-05T01:47:14.844Z,44.82
2023-03-05T01:49:41.221Z,45.31
2023-03-05T01:52:07.671Z,45.32
2023-03-05T01:54:34.149Z,45.64
2023-03-05T01:57:00.688Z,45.42
2023-03-05T01:59:27.136Z,44.88
2023-03-05T02:01:53.552Z,45.55
2023-03-05T02:04:20.023Z,44.49
2023-03-05T02:06:46.492Z,44.87
2023-03-05T02:09:12.953Z,43.88
2023-03-05T02:11:39.360Z,44.85
2023-03-05T02:14:06.636Z,44.33
2023-03-05T02:16:34.217Z,44.93
2023-03-05T02:19:00.663Z,44.67
2023-03-05T02:21:27.091Z,44.29
2023-03-05T02:23:53.545Z,44.62
2023-03-05T02:26:19.939Z,44.92
2023-03-05T02:28:46.422Z,45.84
2023-03-05T02:31:12.855Z,44.98
2023-03-05T02:33:39.286Z,44.86
2023-03-05T02:36:05.775Z,45.36
2023-03-05T02:38:32.460Z,45.18
2023-03-05T02:40:58.904Z,45.35
2023-03-05T02:43:25.335Z,44.86
2023-03-05T02:45:51.785Z,46.40
2023-03-05T02:48:18.303Z,45.12
2023-03-05T02:50:44.871Z,44.43
2023-03-05T02:53:11.278Z,44.88
2023-03-05T02:55:37.730Z,44.65
2023-03-05T02:58:04.196Z,44.52
2023-03-05T03:00:30.840Z,45.10
2023-03-05T03:02:57.362Z,44.71
2023-03-05T03:05:23.846Z,43.54
2023-03-05T03:07:50.326Z,44.09
2023-03-05T03:10:16.737Z,43.83
2023-03-05T03:12:43.211Z,44.97
2023-03-05T03:15:09.600Z,44.63
2023-03-05T03:17:37.989Z,44.39
2023-03-05T03:20:04.423Z,44.45
2023-03-05T03:22:30.793Z,44.43
2023-03-05T03:24:57.211Z,44.05
2023-03-05T03:27:23.604Z,43.90
2023-03-05T03:29:50.028Z,44.28
2023-03-05T03:32:16.503Z,44.86
2023-03-05T03:34:42.976Z,44.49
2023-03-05T03:37:09.505Z,44.72
2023-03-05T03:39:35.904Z,44.07
2023-03-05T03:42:02.345Z,43.97
2023-03-05T03:44:28.834Z,44.66
2023-03-05T03:46:55.248Z,44.69
2023-03-05T03:49:21.747Z,44.63
2023-03-05T03:51:48.244Z,44.73
2023-03-05T03:54:14.682Z,44.66
2023-03-05T03:56:41.071Z,44.68
2023-03-05T03:59:07.497Z,44.19
2023-03-05T04:01:34.058Z,45.27
2023-03-05T04:04:00.582Z,45.11
2023-03-05T04:06:26.998Z,45.50
2023-03-05T04:08:53.701Z,45.17
2023-03-05T04:11:20.118Z,45.37
2023-03-05T04:13:46.586Z,44.75
2023-03-05T04:16:13.238Z,45.59
2023-03-05T04:18:39.720Z,45.43
2023-03-05T04:21:06.137Z,47.62
2023-03-05T04:23:32.553Z,46.88
2023-03-05T04:25:59.006Z,45.99
2023-03-05T04:28:25.638Z,45.11
2023-03-05T04:30:52.207Z,45.13
2023-03-05T04:33:18.710Z,45.52
2023-03-05T04:35:45.129Z,45.76
2023-03-05T04:38:11.666Z,46.38
2023-03-05T04:40:38.399Z,46.21
2023-03-05T04:43:04.840Z,45.35
2023-03-05T04:45:31.322Z,45.29
2023-03-05T04:47:57.738Z,45.32
2023-03-05T04:50:24.169Z,44.87
2023-03-05T04:52:50.664Z,45.34
2023-03-05T04:55:17.104Z,47.08
2023-03-05T04:57:43.691Z,46.38
2023-03-05T05:00:10.137Z,45.84
2023-03-05T05:02:36.629Z,45.60
2023-03-05T05:05:03.043Z,45.56
2023-03-05T05:07:30.108Z,45.50
2023-03-05T05:09:57.130Z,45.49
2023-03-05T05:12:24.670Z,45.34
2023-03-05T05:14:51.086Z,45.94
2023-03-05T05:17:17.811Z,45.44
2023-03-05T05:19:44.291Z,45.56
2023-03-05T05:22:10.682Z,45.39
2023-03-05T05:24:37.169Z,45.95
2023-03-05T05:27:03.614Z,45.71
2023-03-05T05:29:30.042Z,46.06
2023-03-05T05:31:56.482Z,47.21
2023-03-05T05:34:22.853Z,46.44
2023-03-05T05:36:49.309Z,46.36
2023-03-05T05:39:15.978Z,46.02
2023-03-05T05:41:42.896Z,46.81
2023-03-05T05:44:09.315Z,46.00
2023-03-05T05:46:35.853Z,46.39
2023-03-05T05:49:02.333Z,45.59
2023-03-05T05:51:28.765Z,46.36
2023-03-05T05:53:55.337Z,46.12
2023-03-05T05:56:21.801Z,46.05
2023-03-05T05:58:48.253Z,46.13
2023-03-05T06:01:14.639Z,46.39
2023-03-05T06:03:41.074Z,46.19
2023-03-05T06:06:07.459Z,45.60
2023-03-05T06:08:33.945Z,46.15
2023-03-05T06:11:00.320Z,45.74
2023-03-05T06:13:28.334Z,45.11
2023-03-05T06:15:54.770Z,45.16
2023-03-05T06:18:21.179Z,45.83
2023-03-05T06:20:48.801Z,46.40
2023-03-05T06:23:15.213Z,46.50
2023-03-05T06:25:41.999Z,46.96
2023-03-05T06:28:09.425Z,47.12
2023-03-05T06:30:35.985Z,47.97
2023-03-05T06:33:02.451Z,48.20
2023-03-05T06:35:29.102Z,47.46
2023-03-05T06:37:55.572Z,46.94
2023-03-05T06:40:22.039Z,46.77
2023-03-05T06:42:48.516Z,47.26
2023-03-05T06:45:14.938Z,47.53
2023-03-05T06:47:41.622Z,46.61
2023-03-05T06:50:08.111Z,46.04
2023-03-05T06:52:34.489Z,46.00
2023-03-05T06:55:00.996Z,45.83
2023-03-05T06:57:27.414Z,47.56
2023-03-05T06:59:54.227Z,46.67
2023-03-05T07:02:20.813Z,46.11
2023-03-05T07:04:47.368Z,45.65
2023-03-05T07:07:13.848Z,45.72
2023-03-05T07:09:40.237Z,46.17
2023-03-05T07:12:06.684Z,45.81
2023-03-05T07:14:33.132Z,47.16
2023-03-05T07:16:59.624Z,47.13
2023-03-05T07:19:26.058Z,46.84
2023-03-05T07:21:52.617Z,47.33
2023-03-05T07:24:18.977Z,47.31
2023-03-05T07:26:46.931Z,47.13
2023-03-05T07:29:14.452Z,46.30
2023-03-05T07:31:41.128Z,46.81
2023-03-05T07:34:07.488Z,46.48
2023-03-05T07:36:33.966Z,46.89
2023-03-05T07:39:00.406Z,47.52
2023-03-05T07:41:26.897Z,47.43
2023-03-05T07:43:53.443Z,46.38
2023-03-05T07:46:19.926Z,46.00
2023-03-05T07:48:46.556Z,45.85
2023-03-05T07:51:13.325Z,45.41
2023-03-05T07:53:39.710Z,46.34
2023-03-05T07:56:06.168Z,45.98
2023-03-05T07:58:32.637Z,45.39
2023-03-05T08:00:59.145Z,46.03
2023-03-05T08:03:26.126Z,46.15
2023-03-05T08:05:52.550Z,46.23
2023-03-05T08:08:18.990Z,47.50
2023-03-05T08:10:45.473Z,47.18
2023-03-05T08:13:12.208Z,46.24
2023-03-05T08:15:38.740Z,46.88
2023-03-05T08:18:05.177Z,47.43
2023-03-05T08:20:31.626Z,46.78
2023-03-05T08:22:58.124Z,46.86
2023-03-05T08:25:26.956Z,46.97
2023-03-05T08:27:54.479Z,46.37
2023-03-05T08:30:20.865Z,45.57
2023-03-05T08:32:47.391Z,45.46
2023-03-05T08:35:13.819Z,46.13
2023-03-05T08:37:40.401Z,45.99
2023-03-05T08:40:06.916Z,45.91
2023-03-05T08:42:33.524Z,46.27
2023-03-05T08:45:00.012Z,46.82
2023-03-05T08:47:26.614Z,45.82
2023-03-05T08:49:53.032Z,45.88
2023-03-05T08:52:19.510Z,45.18
2023-03-05T08:54:45.971Z,45.43
2023-03-05T08:57:12.757Z,45.31
2023-03-05T08:59:39.188Z,45.84
2023-03-05T09:02:05.958Z,46.54
2023-03-05T09:04:32.468Z,45.73
2023-03-05T09:06:59.058Z,45.74
2023-03-05T09:09:25.690Z,45.65
2023-03-05T09:11:52.273Z,45.50
2023-03-05T09:14:18.970Z,44.91
2023-03-05T09:16:45.892Z,45.65
2023-03-05T09:19:14.935Z,44.97
2023-03-05T09:21:41.411Z,44.35
2023-03-05T09:24:07.853Z,43.94
2023-03-05T09:26:34.359Z,45.63
2023-03-05T09:29:01.001Z,44.68
2023-03-05T09:31:28.705Z,44.60
2023-03-05T09:33:55.238Z,43.59
2023-03-05T09:36:21.776Z,43.91
2023-03-05T09:38:48.244Z,43.59
2023-03-05T09:41:14.645Z,44.98
2023-03-05T09:43:41.105Z,43.46
2023-03-05T09:46:07.600Z,44.92
2023-03-05T09:48:34.089Z,44.83
2023-03-05T09:51:02.984Z,44.41
2023-03-05T09:53:29.470Z,44.13
2023-03-05T09:55:55.993Z,44.00
2023-03-05T09:58:22.492Z,43.84
2023-03-05T10:00:48.861Z,44.12
2023-03-05T10:03:15.864Z,43.34
2023-03-05T10:05:42.345Z,43.38
2023-03-05T10:08:08.777Z,43.76
2023-03-05T10:10:35.201Z,43.75
2023-03-05T10:13:01.597Z,43.58
2023-03-05T10:15:28.007Z,43.70
2023-03-05T10:17:54.401Z,43.86
2023-03-05T10:20:20.842Z,43.30
2023-03-05T10:22:47.369Z,43.13
2023-03-05T10:25:13.739Z,43.19
2023-03-05T10:27:40.226Z,43.13
2023-03-05T10:30:06.955Z,42.34
2023-03-05T10:32:33.493Z,43.02
2023-03-05T10:35:01.316Z,43.07
2023-03-05T10:37:30.391Z,42.43
2023-03-05T10:39:56.815Z,42.36
2023-03-05T10:42:23.209Z,41.54
2023-03-05T10:44:50.045Z,42.27
2023-03-05T10:47:16.823Z,41.38
2023-03-05T10:49:43.473Z,41.56
2023-03-05T10:52:10.476Z,42.60
2023-03-05T10:54:36.932Z,42.47
2023-03-05T10:57:03.344Z,41.16
2023-03-05T10:59:30.061Z,42.28
2023-03-05T11:01:56.804Z,41.92
2023-03-05T11:04:23.317Z,42.65
2023-03-05T11:06:49.861Z,43.87
2023-03-05T11:09:16.262Z,41.98
2023-03-05T11:11:42.928Z,42.65
2023-03-05T11:14:09.544Z,41.99
2023-03-05T11:16:36.071Z,41.29
2023-03-05T11:19:02.715Z,41.44
2023-03-05T11:21:29.328Z,40.59
2023-03-05T11:23:55.746Z,40.88
2023-03-05T11:26:22.581Z,39.57
2023-03-05T11:28:49.067Z,40.19
2023-03-05T11:31:16.271Z,40.21
2023-03-05T11:33:43.127Z,39.75
2023-03-05T11:36:09.783Z,38.91
2023-03-05T11:38:36.234Z,39.39
2023-03-05T11:41:03.183Z,40.08
2023-03-05T11:43:30.373Z,39.50
2023-03-05T11:45:56.789Z,40.39
2023-03-05T11:48:23.509Z,40.05
2023-03-05T11:50:50.064Z,41.35
2023-03-05T11:53:16.652Z,40.91
2023-03-05T11:55:43.562Z,40.64
2023-03-05T11:58:10.091Z,41.36
2023-03-05T12:00:36.976Z,41.61
2023-03-05T12:03:03.402Z,41.48
2023-03-05T12:05:29.880Z,40.66
2023-03-05T12:07:56.822Z,40.72
2023-03-05T12:10:24.310Z,42.38
2023-03-05T12:12:51.056Z,42.33
2023-03-05T12:15:17.897Z,41.13
2023-03-05T12:17:46.035Z,41.92
2023-03-05T12:20:12.616Z,41.24
2023-03-05T12:22:39.695Z,41.28
2023-03-05T12:25:06.636Z,40.94
2023-03-05T12:27:33.348Z,40.86
2023-03-05T12:30:02.183Z,40.65
2023-03-05T12:32:28.739Z,40.63
2023-03-05T12:34:55.222Z,40.40
2023-03-05T12:37:22.061Z,40.07
2023-03-05T12:39:48.621Z,41.28
2023-03-05T12:42:15.179Z,41.72
2023-03-05T12:44:41.918Z,42.13
2023-03-05T12:47:09.034Z,40.77
2023-03-05T12:49:36.104Z,40.45
2023-03-05T12:52:02.530Z,40.55
2023-03-05T12:54:29.114Z,40.37
2023-03-05T12:56:55.712Z,39.79
2023-03-05T12:59:22.187Z,40.06
2023-03-05T13:01:48.789Z,39.92
2023-03-05T13:04:15.617Z,39.80
2023-03-05T13:06:42.580Z,39.52
2023-03-05T13:09:09.536Z,39.85
2023-03-05T13:11:36.488Z,40.17
2023-03-05T13:14:03.657Z,39.45
2023-03-05T13:16:32.694Z,39.31
2023-03-05T13:18:59.339Z,39.56
2023-03-05T13:21:26.091Z,38.75
2023-03-05T13:23:52.584Z,38.57
2023-03-05T13:26:19.091Z,38.69
2023-03-05T13:28:45.561Z,37.88
2023-03-05T13:31:12.918Z,38.79
2023-03-05T13:33:40.510Z,37.98
2023-03-05T13:36:07.342Z,38.85
2023-03-05T13:38:34.296Z,37.45
2023-03-05T13:41:01.410Z,37.91
2023-03-05T13:43:28.930Z,38.19
2023-03-05T13:45:55.707Z,38.33
2023-03-05T13:48:23.586Z,37.41
2023-03-05T13:50:50.513Z,37.99
2023-03-05T13:53:18.055Z,37.40
2023-03-05T13:55:44.699Z,36.74
2023-03-05T13:58:11.570Z,37.87
2023-03-05T14:00:38.234Z,37.56
2023-03-05T14:03:05.018Z,37.31
2023-03-05T14:05:31.497Z,37.41
2023-03-05T14:07:58.800Z,36.76
2023-03-05T14:10:25.993Z,37.32
2023-03-05T14:12:54.209Z,37.00
2023-03-05T14:15:21.212Z,36.46
2023-03-05T14:17:48.839Z,37.73
2023-03-05T14:20:16.738Z,36.27
2023-03-05T14:22:43.663Z,36.64
2023-03-05T14:25:10.604Z,36.91
2023-03-05T14:27:37.258Z,36.94
2023-03-05T14:30:04.992Z,36.89
2023-03-05T14:32:32.032Z,37.16
2023-03-05T14:34:59.464Z,36.79
2023-03-05T14:37:26.744Z,37.08
2023-03-05T14:39:53.716Z,37.13
2023-03-05T14:42:20.776Z,36.53
2023-03-05T14:44:47.695Z,36.49
2023-03-05T14:47:14.656Z,36.14
2023-03-05T14:49:41.736Z,36.48
2023-03-05T14:52:08.214Z,36.40
2023-03-05T14:54:35.176Z,36.00
2023-03-05T14:57:09.561Z,36.60
2023-03-05T14:59:36.824Z,36.53
2023-03-05T15:02:03.967Z,37.26
2023-03-05T15:04:31.307Z,36.87
2023-03-05T15:06:58.447Z,37.12
2023-03-05T15:09:26.027Z,36.59
2023-03-05T15:11:53.006Z,36.27
2023-03-05T15:14:20.145Z,35.78
2023-03-05T15:16:47.120Z,36.51
2023-03-05T15:19:13.901Z,36.27
2023-03-05T15:21:40.895Z,36.17
2023-03-05T15:24:09.168Z,36.28
2023-03-05T15:26:37.073Z,36.19
2023-03-05T15:29:04.206Z,36.30
2023-03-05T15:31:31.729Z,36.33
2023-03-05T15:33:58.847Z,37.35
2023-03-05T15:36:25.552Z,37.74
2023-03-05T15:38:52.094Z,37.88
2023-03-05T15:41:19.633Z,37.87
2023-03-05T15:43:46.849Z,39.05
2023-03-05T15:46:14.047Z,39.06
2023-03-05T15:48:42.575Z,37.79
2023-03-05T15:51:11.044Z,37.59
2023-03-05T15:53:38.016Z,37.18
2023-03-05T15:56:05.271Z,36.99
2023-03-05T15:58:32.337Z,37.07
2023-03-05T16:00:59.708Z,37.44
2023-03-05T16:03:26.601Z,36.72
2023-03-05T16:05:53.568Z,37.64
2023-03-05T16:08:20.735Z,38.45
2023-03-05T16:10:47.916Z,37.41
2023-03-05T16:13:15.892Z,37.27
2023-03-05T16:15:43.063Z,36.78
2023-03-05T16:18:10.499Z,36.84
2023-03-05T16:20:40.082Z,37.45
2023-03-05T16:23:07.416Z,37.57
2023-03-05T16:25:33.923Z,36.81
2023-03-05T16:28:00.902Z,36.61
2023-03-05T16:30:28.029Z,37.23
2023-03-05T16:32:55.751Z,36.91
2023-03-05T16:35:22.801Z,37.28
2023-03-05T16:37:49.807Z,36.76
2023-03-05T16:40:17.140Z,36.86
2023-03-05T16:42:46.717Z,36.15
2023-03-05T16:45:13.899Z,36.77
2023-03-05T16:47:40.866Z,36.21
2023-03-05T16:50:07.914Z,36.32
2023-03-05T16:52:34.909Z,36.21
2023-03-05T16:55:02.558Z,35.98
2023-03-05T16:57:29.933Z,37.46
2023-03-05T16:59:56.507Z,37.40
2023-03-05T17:02:23.355Z,37.66
2023-03-05T17:04:50.583Z,37.86
2023-03-05T17:07:17.399Z,36.91
2023-03-05T17:09:44.549Z,37.44
2023-03-05T17:12:12.300Z,38.13
2023-03-05T17:14:39.505Z,37.90
2023-03-05T17:17:06.197Z,37.23
2023-03-05T17:19:33.211Z,37.48
2023-03-05T17:22:00.212Z,37.84
2023-03-05T17:24:27.166Z,36.96
2023-03-05T17:26:56.723Z,36.40
2023-03-05T17:29:23.739Z,36.59
2023-03-05T17:31:50.638Z,36.32
2023-03-05T17:34:18.391Z,36.06
2023-03-05T17:36:47.351Z,35.64
2023-03-05T17:39:14.323Z,35.55
2023-03-05T17:41:41.928Z,35.97
2023-03-05T17:44:09.496Z,35.97
2023-03-05T17:46:36.622Z,35.86
2023-03-05T17:49:04.144Z,35.68
2023-03-05T17:51:30.940Z,35.50
2023-03-05T17:54:00.767Z,35.57
2023-03-05T17:56:27.865Z,35.30
2023-03-05T17:58:55.376Z,35.49
2023-03-05T18:01:25.039Z,35.34
2023-03-05T18:03:52.134Z,35.85
2023-03-05T18:06:22.075Z,35.89
2023-03-05T18:08:49.242Z,35.79
2023-03-05T18:11:16.429Z,35.64
2023-03-05T18:13:43.819Z,35.86
2023-03-05T18:16:10.870Z,35.85
2023-03-05T18:18:38.333Z,35.95
2023-03-05T18:21:05.553Z,36.17
2023-03-05T18:23:32.527Z,35.79
2023-03-05T18:25:59.837Z,36.25
2023-03-05T18:28:27.016Z,36.42
2023-03-05T18:30:54.309Z,35.88
2023-03-05T18:33:24.129Z,36.58
2023-03-05T18:35:51.320Z,36.22
2023-03-05T18:38:17.862Z,36.46
2023-03-05T18:40:44.936Z,36.00
2023-03-05T18:43:11.955Z,36.03
2023-03-05T18:45:38.654Z,35.71
2023-03-05T18:48:05.486Z,36.75
2023-03-05T18:50:32.642Z,36.80
2023-03-05T18:53:00.976Z,37.02
2023-03-05T18:55:28.057Z,36.65
2023-03-05T18:57:55.710Z,36.42
2023-03-05T19:00:22.986Z,37.16
2023-03-05T19:02:51.449Z,36.79
2023-03-05T19:05:18.945Z,36.83
2023-03-05T19:07:47.283Z,37.00
2023-03-05T19:10:14.440Z,38.02
2023-03-05T19:12:41.581Z,37.16
2023-03-05T19:15:08.858Z,36.69
2023-03-05T19:17:36.231Z,36.57
2023-03-05T19:20:05.358Z,37.00
2023-03-05T19:22:32.053Z,36.58
2023-03-05T19:24:59.070Z,36.39
2023-03-05T19:27:26.156Z,36.50
2023-03-05T19:29:53.868Z,36.18
2023-03-05T19:32:23.821Z,36.31
2023-03-05T19:34:50.974Z,36.63
2023-03-05T19:37:18.322Z,36.25
2023-03-05T19:39:46.299Z,36.29
2023-03-05T19:42:13.595Z,38.81
2023-03-05T19:44:41.285Z,37.90
2023-03-05T19:47:08.269Z,36.42
2023-03-05T19:49:39.760Z,36.19
2023-03-05T19:52:06.479Z,36.56
2023-03-05T19:54:33.521Z,37.50
2023-03-05T19:57:00.900Z,37.39
2023-03-05T19:59:28.312Z,37.36
2023-03-05T20:01:55.370Z,44.71
2023-03-05T20:04:22.354Z,43.48
2023-03-05T20:06:49.423Z,37.55
2023-03-05T20:09:16.609Z,37.37
2023-03-05T20:11:43.426Z,37.78
2023-03-05T20:14:11.751Z,36.83
2023-03-05T20:16:38.655Z,36.59
2023-03-05T20:19:05.884Z,37.04
2023-03-05T20:21:33.076Z,36.91
2023-03-05T20:24:00.334Z,36.65
2023-03-05T20:26:27.592Z,36.66
2023-03-05T20:28:54.613Z,36.41
2023-03-05T20:31:22.345Z,36.79
2023-03-05T20:33:49.692Z,36.42
2023-03-05T20:36:16.724Z,37.03
2023-03-05T20:38:44.849Z,36.96
2023-03-05T20:41:12.821Z,36.82
2023-03-05T20:43:39.933Z,37.00
2023-03-05T20:46:07.045Z,36.36
2023-03-05T20:48:34.192Z,36.65
2023-03-05T20:51:01.119Z,35.69
2023-03-05T20:53:28.899Z,36.90
2023-03-05T20:55:56.010Z,36.83
2023-03-05T20:58:23.000Z,36.82
2023-03-05T21:03:40.548Z,36.85
2023-03-05T21:06:07.534Z,37.17
2023-03-05T21:08:34.542Z,37.30
2023-03-05T21:11:01.759Z,37.33
2023-03-05T21:13:28.594Z,37.10
2023-03-05T21:15:55.742Z,37.61
2023-03-05T21:18:22.633Z,36.87
2023-03-05T21:20:49.550Z,36.70
2023-03-05T21:23:16.572Z,37.22
2023-03-05T21:25:43.403Z,36.96
2023-03-05T21:28:10.416Z,37.19
2023-03-05T21:30:36.923Z,37.40
2023-03-05T21:33:03.360Z,36.94
2023-03-05T21:35:30.082Z,37.33
2023-03-05T21:37:56.649Z,37.15
2023-03-05T21:40:23.548Z,37.05
2023-03-05T21:42:50.417Z,37.28
2023-03-05T21:45:18.013Z,36.91
2023-03-05T21:47:44.631Z,37.10
2023-03-05T21:50:11.235Z,37.57
2023-03-05T21:52:37.957Z,37.10
2023-03-05T21:55:05.567Z,37.55
2023-03-05T21:57:32.172Z,37.44
2023-03-05T21:59:58.667Z,37.41
2023-03-05T22:02:25.344Z,37.23
2023-03-05T22:04:52.034Z,37.28
2023-03-05T22:07:18.568Z,37.28
2023-03-05T22:09:45.372Z,37.17
2023-03-05T22:12:11.945Z,36.80
2023-03-05T22:14:38.525Z,37.09
2023-03-05T22:17:04.998Z,37.10
2023-03-05T22:19:31.461Z,37.00
2023-03-05T22:21:57.882Z,37.31
2023-03-05T22:24:24.451Z,37.41
2023-03-05T22:26:50.892Z,36.99
2023-03-05T22:29:17.283Z,37.34
2023-03-05T22:31:43.785Z,37.30
2023-03-05T22:34:10.341Z,37.44
2023-03-05T22:36:36.781Z,37.32
2023-03-05T22:39:03.319Z,37.67
2023-03-05T22:41:30.039Z,37.49
2023-03-05T22:43:56.533Z,37.60
2023-03-05T22:46:23.402Z,37.63
2023-03-05T22:48:49.902Z,37.42
2023-03-05T22:51:16.339Z,37.43
2023-03-05T22:53:42.785Z,37.68
2023-03-05T22:56:09.249Z,37.52
2023-03-05T22:58:35.875Z,37.14
2023-03-05T23:01:02.643Z,36.71
2023-03-05T23:03:29.235Z,37.58
2023-03-05T23:05:55.669Z,37.72
2023-03-05T23:08:22.984Z,37.57
2023-03-05T23:10:49.432Z,37.34
2023-03-05T23:13:15.874Z,37.06
2023-03-05T23:15:42.455Z,36.94
2023-03-05T23:18:08.958Z,37.19
2023-03-05T23:20:35.398Z,36.94
2023-03-05T23:23:01.877Z,37.54
2023-03-05T23:25:28.852Z,37.55
2023-03-05T23:27:55.293Z,36.96
2023-03-05T23:30:21.990Z,36.68
2023-03-05T23:32:48.412Z,37.04
2023-03-05T23:35:15.251Z,36.88
2023-03-05T23:37:42.213Z,36.95
2023-03-05T23:40:08.762Z,36.68
2023-03-05T23:42:35.234Z,36.52
2023-03-05T23:45:01.933Z,36.40
2023-03-05T23:47:28.327Z,36.48
2023-03-05T23:49:54.715Z,36.70
2023-03-05T23:52:21.146Z,36.28
2023-03-05T23:54:47.643Z,36.98
2023-03-05T23:57:14.069Z,36.21
2023-03-05T23:59:40.499Z,36.50
